createdAt,value
2023-04-09T00:03:49.671Z,17.15
2023-04-09T00:08:51.947Z,17.38
2023-04-09T00:13:54.234Z,16.67
2023-04-09T00:18:56.679Z,16.50
2023-04-09T00:23:58.757Z,16.27
2023-04-09T00:29:01.070Z,16.83
2023-04-09T00:34:05.092Z,18.27
2023-04-09T00:39:10.767Z,16.90
2023-04-09T00:44:13.341Z,19.38
2023-04-09T00:54:53.216Z,19.42
2023-04-09T00:59:55.313Z,19.98
2023-04-09T01:04:57.471Z,19.02
2023-04-09T01:10:05.214Z,16.80
2023-04-09T01:15:18.366Z,15.35
2023-04-09T01:20:37.426Z,17.63
2023-04-09T01:25:39.411Z,15.40
2023-04-09T01:30:47.358Z,17.02
2023-04-09T01:35:50.987Z,18.57
2023-04-09T01:40:55.652Z,16.75
2023-04-09T01:46:00.654Z,16.73
2023-04-09T01:51:02.533Z,18.67
2023-04-09T01:56:04.545Z,15.88
2023-04-09T02:01:09.949Z,16.23
2023-04-09T02:06:21.205Z,16.60
2023-04-09T02:11:24.775Z,16.95
2023-04-09T02:16:27.800Z,16.35
2023-04-09T02:21:29.810Z,18.08
2023-04-09T02:26:31.687Z,18.45
2023-04-09T02:31:33.730Z,16.83
2023-04-09T02:36:35.485Z,16.88
2023-04-09T02:41:37.284Z,17.35
2023-04-09T02:46:41.620Z,20.23
2023-04-09T02:51:43.332Z,16.60
2023-04-09T02:56:44.996Z,17.23
2023-04-09T03:01:46.654Z,17.63
2023-04-09T03:06:48.373Z,15.55
2023-04-09T03:11:49.995Z,17.35
2023-04-09T03:16:51.679Z,17.98
2023-04-09T03:21:53.562Z,18.58
2023-04-09T03:26:59.679Z,18.25
2023-04-09T03:32:01.406Z,19.65
2023-04-09T03:37:03.259Z,21.48
2023-04-09T03:42:06.643Z,21.40
2023-04-09T03:47:18.112Z,21.52
2023-04-09T03:52:19.736Z,20.17
2023-04-09T03:57:28.730Z,21.13
2023-04-09T04:02:34.017Z,22.70
2023-04-09T04:07:39.518Z,20.98
2023-04-09T04:12:46.054Z,22.67
2023-04-09T04:17:57.030Z,27.33
2023-04-09T04:23:19.230Z,38.20
2023-04-09T04:28:37.869Z,23.92
2023-04-09T04:33:41.934Z,26.50
2023-04-09T04:38:48.191Z,23.23
2023-04-09T04:44:16.171Z,26.38
2023-04-09T04:49:18.340Z,32.53
2023-04-09T04:54:22.626Z,30.73
2023-04-09T04:59:28.950Z,29.20
2023-04-09T05:04:34.750Z,29.48
2023-04-09T05:09:37.260Z,32.22
2023-04-09T05:14:42.230Z,40.28
2023-04-09T05:19:44.169Z,25.48
2023-04-09T05:24:47.858Z,22.83
2023-04-09T05:29:51.196Z,22.45
2023-04-09T05:34:53.244Z,23.00
2023-04-09T05:39:56.907Z,21.20
2023-04-09T05:44:59.539Z,23.00
2023-04-09T05:50:01.815Z,21.45
2023-04-09T05:55:03.817Z,22.80
2023-04-09T06:00:18.275Z,23.20
2023-04-09T06:05:22.116Z,22.83
2023-04-09T06:10:24.361Z,23.08
2023-04-09T06:15:26.317Z,24.48
2023-04-09T06:20:29.358Z,27.15
2023-04-09T06:25:31.031Z,29.80
2023-04-09T06:30:32.782Z,28.63
2023-04-09T06:35:34.586Z,28.52
2023-04-09T06:40:38.725Z,31.90
2023-04-09T06:45:41.119Z,33.65
2023-04-09T06:50:43.168Z,32.00
2023-04-09T06:55:44.804Z,32.28
2023-04-09T07:00:46.695Z,30.27
2023-04-09T07:05:48.703Z,31.10
2023-04-09T07:10:50.475Z,26.98
2023-04-09T07:15:52.154Z,29.98
2023-04-09T07:20:53.865Z,27.48
2023-04-09T07:25:55.757Z,25.48
2023-04-09T07:30:57.656Z,27.25
2023-04-09T07:35:59.336Z,25.92
2023-04-09T07:41:01.430Z,24.80
2023-04-09T07:46:03.252Z,26.63
2023-04-09T07:51:06.140Z,26.60
2023-04-09T07:56:08.106Z,27.65
2023-04-09T08:01:09.711Z,24.67
2023-04-09T08:06:11.505Z,25.17
2023-04-09T08:11:13.195Z,26.00
2023-04-09T08:16:15.544Z,29.48
2023-04-09T08:21:17.940Z,31.90
2023-04-09T08:26:19.695Z,29.33
2023-04-09T08:31:21.549Z,28.90
2023-04-09T08:36:23.465Z,25.08
2023-04-09T08:41:26.870Z,26.35
2023-04-09T08:46:28.739Z,25.63
2023-04-09T08:51:31.512Z,25.05
2023-04-09T08:56:33.454Z,20.90
2023-04-09T09:01:35.138Z,22.02
2023-04-09T09:06:41.499Z,22.27
2023-04-09T09:11:48.599Z,21.08
2023-04-09T09:16:56.773Z,21.15
2023-04-09T09:22:03.451Z,20.83
2023-04-09T09:27:05.362Z,22.70
2023-04-09T09:32:13.526Z,22.17
2023-04-09T09:37:28.561Z,22.33
2023-04-09T09:42:30.306Z,23.10
2023-04-09T09:47:32.550Z,21.33
2023-04-09T09:52:34.225Z,19.52
2023-04-09T09:57:42.232Z,21.95
2023-04-09T10:02:53.408Z,21.95
2023-04-09T10:07:57.860Z,21.13
2023-04-09T10:12:59.835Z,23.05
2023-04-09T10:18:01.986Z,27.17
2023-04-09T10:23:09.595Z,25.15
2023-04-09T10:28:18.664Z,23.63
2023-04-09T10:33:26.929Z,22.83
2023-04-09T10:38:38.346Z,17.30
2023-04-09T10:43:40.452Z,19.40
2023-04-09T10:48:43.838Z,20.45
2023-04-09T10:53:45.768Z,21.60
2023-04-09T10:58:47.409Z,22.60
2023-04-09T11:04:10.589Z,21.70
2023-04-09T11:09:12.491Z,21.30
2023-04-09T11:14:20.442Z,23.27
2023-04-09T11:19:22.125Z,20.20
2023-04-09T11:24:23.850Z,21.00
2023-04-09T11:29:25.468Z,20.80
2023-04-09T11:34:30.570Z,21.35
2023-04-09T11:39:32.143Z,18.40
2023-04-09T11:44:33.814Z,14.93
2023-04-09T11:49:36.036Z,19.35
2023-04-09T11:54:37.850Z,20.10
2023-04-09T11:59:39.743Z,20.70
2023-04-09T12:04:50.678Z,19.98
2023-04-09T12:09:52.386Z,18.65
2023-04-09T12:14:56.951Z,19.85
2023-04-09T12:19:58.524Z,19.48
2023-04-09T12:25:00.494Z,18.70
2023-04-09T12:30:02.115Z,17.77
2023-04-09T12:35:04.346Z,18.58
2023-04-09T12:40:07.126Z,16.88
2023-04-09T12:45:15.609Z,18.70
2023-04-09T12:50:17.354Z,20.20
2023-04-09T12:55:19.029Z,18.50
2023-04-09T13:00:20.723Z,20.38
2023-04-09T13:05:22.367Z,21.35
2023-04-09T13:10:25.462Z,20.42
2023-04-09T13:15:27.419Z,22.08
2023-04-09T13:20:29.628Z,26.30
2023-04-09T13:25:31.313Z,24.20
2023-04-09T13:30:32.989Z,33.75
2023-04-09T13:35:34.728Z,23.70
2023-04-09T13:40:36.584Z,13.90
2023-04-09T13:45:38.238Z,14.35
2023-04-09T13:50:39.853Z,14.88
2023-04-09T13:55:41.788Z,15.13
2023-04-09T14:00:43.533Z,14.20
2023-04-09T14:05:45.558Z,14.68
2023-04-09T14:10:47.301Z,14.25
2023-04-09T14:15:50.047Z,12.13
2023-04-09T14:20:51.914Z,14.23
2023-04-09T14:25:53.759Z,13.45
2023-04-09T14:30:55.661Z,12.63
2023-04-09T14:35:58.729Z,12.48
2023-04-09T14:41:00.852Z,12.00
2023-04-09T14:46:04.017Z,12.80
2023-04-09T14:51:06.799Z,11.30
2023-04-09T14:56:08.605Z,12.00
2023-04-09T15:01:10.372Z,12.55
2023-04-09T15:06:12.441Z,11.88
2023-04-09T15:11:18.072Z,10.93
2023-04-09T15:16:28.031Z,11.20
2023-04-09T15:21:31.726Z,7.47
2023-04-09T15:26:34.520Z,7.47
2023-04-09T15:31:36.427Z,8.98
2023-04-09T15:36:38.252Z,8.75
2023-04-09T15:41:39.860Z,8.30
2023-04-09T15:46:41.569Z,9.30
2023-04-09T15:51:43.249Z,9.48
2023-04-09T15:56:45.113Z,10.18
2023-04-09T16:01:46.821Z,7.32
2023-04-09T16:06:48.441Z,8.98
2023-04-09T16:11:51.096Z,9.65
2023-04-09T16:16:53.790Z,10.10
2023-04-09T16:21:55.739Z,9.80
2023-04-09T16:26:57.823Z,8.30
2023-04-09T16:32:00.049Z,8.38
2023-04-09T16:37:01.971Z,8.43
2023-04-09T16:42:03.641Z,8.05
2023-04-09T16:47:05.336Z,7.75
2023-04-09T16:52:07.161Z,7.55
2023-04-09T16:57:08.943Z,8.50
2023-04-09T17:02:10.702Z,7.95
2023-04-09T17:07:12.525Z,8.02
2023-04-09T17:12:14.236Z,8.30
2023-04-09T17:17:16.150Z,7.80
2023-04-09T17:22:17.951Z,10.45
2023-04-09T17:27:19.784Z,10.82
2023-04-09T17:32:21.503Z,10.82
2023-04-09T17:37:23.188Z,10.10
2023-04-09T17:42:24.824Z,11.13
2023-04-09T17:47:26.513Z,12.65
2023-04-09T17:52:29.214Z,11.48
2023-04-09T17:57:30.909Z,20.90
2023-04-09T18:02:33.008Z,45.42
2023-04-09T18:07:34.951Z,30.83
2023-04-09T18:12:36.569Z,30.17
2023-04-09T18:17:38.318Z,28.52
2023-04-09T18:22:39.956Z,18.73
2023-04-09T18:27:41.545Z,14.45
2023-04-09T18:32:43.986Z,12.43
2023-04-09T18:37:45.859Z,11.05
2023-04-09T18:42:54.144Z,10.45
2023-04-09T18:47:55.820Z,11.82
2023-04-09T18:52:57.454Z,10.90
2023-04-09T18:57:59.208Z,10.85
2023-04-09T19:03:01.253Z,11.23
2023-04-09T19:08:05.301Z,11.60
2023-04-09T19:13:06.995Z,13.02
2023-04-09T19:18:08.598Z,14.38
2023-04-09T19:23:10.312Z,15.18
2023-04-09T19:28:12.101Z,16.95
2023-04-09T19:33:13.763Z,15.48
2023-04-09T19:38:16.319Z,15.80
2023-04-09T19:43:18.033Z,13.75
2023-04-09T19:48:19.638Z,20.23
2023-04-09T19:53:22.859Z,21.00
2023-04-09T19:58:24.586Z,16.10
2023-04-09T20:03:26.350Z,24.40
2023-04-09T20:08:28.242Z,22.95
2023-04-09T20:13:29.999Z,25.58
2023-04-09T20:18:32.014Z,21.35
2023-04-09T20:23:33.661Z,17.85
2023-04-09T20:28:35.870Z,16.83
2023-04-09T20:33:37.472Z,21.10
2023-04-09T20:38:39.051Z,21.38
2023-04-09T20:43:40.762Z,20.98
2023-04-09T20:48:43.196Z,22.50
2023-04-09T20:53:45.436Z,19.92
2023-04-09T20:58:47.289Z,20.40
2023-04-09T21:03:49.150Z,18.55
2023-04-09T21:08:51.745Z,21.02
2023-04-09T21:13:55.256Z,18.83
2023-04-09T21:18:57.242Z,18.55
2023-04-09T21:23:58.936Z,20.10
2023-04-09T21:29:01.573Z,20.60
2023-04-09T21:34:03.256Z,20.33
2023-04-09T21:39:04.967Z,19.45
2023-04-09T21:44:08.631Z,17.08
2023-04-09T21:49:10.481Z,17.60
2023-04-09T21:54:12.095Z,17.63
2023-04-09T21:59:13.681Z,16.65
2023-04-09T22:04:15.638Z,17.08
2023-04-09T22:09:17.242Z,17.02
2023-04-09T22:14:19.832Z,17.60
2023-04-09T22:19:21.728Z,17.00
2023-04-09T22:24:30.358Z,18.13
2023-04-09T22:29:32.820Z,16.30
2023-04-09T22:34:34.662Z,16.65
2023-04-09T22:39:36.502Z,15.20
2023-04-09T22:44:39.673Z,14.85
2023-04-09T22:49:41.318Z,15.20
2023-04-09T22:54:43.270Z,16.95
2023-04-09T22:59:44.887Z,13.77
2023-04-09T23:04:46.702Z,15.23
2023-04-09T23:09:48.482Z,16.02
2023-04-09T23:14:50.167Z,16.58
2023-04-09T23:19:54.598Z,17.02
2023-04-09T23:24:56.692Z,18.98
2023-04-09T23:29:58.383Z,15.70
2023-04-09T23:35:01.239Z,15.80
2023-04-09T23:40:02.936Z,18.65
2023-04-09T23:45:05.800Z,18.17
2023-04-09T23:50:08.408Z,15.93
2023-04-09T23:55:10.755Z,17.40
